createdAt,value
2017-07-08T00:00:16.844Z,-1.5
2017-07-08T00:00:46.722Z,-1.5
2017-07-08T00:01:17.115Z,-1.5
2017-07-08T00:01:47.354Z,-1.5
2017-07-08T00:02:17.733Z,-1.5
2017-07-08T00:03:15.006Z,-1.6
2017-07-08T00:04:13.961Z,-1.5
2017-07-08T00:05:12.778Z,-1.5
2017-07-08T00:06:12.592Z,-1.6
2017-07-08T00:07:11.909Z,-1.6
2017-07-08T00:08:11.098Z,-1.6
2017-07-08T00:09:10.678Z,-1.6
2017-07-08T00:10:10.125Z,-1.6
2017-07-08T00:11:09.498Z,-1.5
2017-07-08T00:12:08.688Z,-1.6
2017-07-08T00:13:07.763Z,-1.6
2017-07-08T00:14:07.707Z,-1.8
2017-07-08T00:15:06.896Z,-1.8
2017-07-08T00:16:06.094Z,-1.8
2017-07-08T00:17:05.535Z,-1.8
2017-07-08T00:18:04.732Z,-1.8
2017-07-08T00:19:04.050Z,-1.7
2017-07-08T00:19:34.550Z,-1.7
2017-07-08T00:20:05.051Z,-1.7
2017-07-08T00:20:35.686Z,-1.7
2017-07-08T00:22:02.687Z,-1.6
2017-07-08T00:23:01.761Z,-1.7
2017-07-08T00:24:00.697Z,-1.7
2017-07-08T00:25:00.348Z,-1.7
2017-07-08T00:26:00.293Z,-1.7
2017-07-08T00:26:59.490Z,-1.7
2017-07-08T00:27:58.946Z,-1.7
2017-07-08T00:28:58.518Z,-1.7
2017-07-08T00:29:57.343Z,-1.6
2017-07-08T00:30:57.284Z,-1.6
2017-07-08T00:31:56.224Z,-1.7
2017-07-08T00:32:55.821Z,-1.6
2017-07-08T00:33:55.530Z,-1.6
2017-07-08T00:34:54.616Z,-1.6
2017-07-08T00:35:54.055Z,-1.6
2017-07-08T00:36:53.134Z,-1.6
2017-07-08T00:37:52.582Z,-1.5
2017-07-08T00:38:52.022Z,-1.5
2017-07-08T00:39:51.470Z,-1.6
2017-07-08T00:40:50.798Z,-1.6
2017-07-08T00:41:50.120Z,-1.7
2017-07-08T00:42:20.389Z,-1.7
2017-07-08T00:42:50.889Z,-1.7
2017-07-08T00:43:21.776Z,-1.7
2017-07-08T00:44:48.395Z,-1.7
2017-07-08T00:45:47.544Z,-1.7
2017-07-08T00:46:46.735Z,-1.7
2017-07-08T00:47:46.181Z,-1.7
2017-07-08T00:48:45.767Z,-1.7
2017-07-08T00:49:45.210Z,-1.8
2017-07-08T00:50:44.651Z,-1.8
2017-07-08T00:51:43.755Z,-1.8
2017-07-08T00:52:42.934Z,-1.8
2017-07-08T00:53:42.887Z,-1.7
2017-07-08T00:54:41.574Z,-1.8
2017-07-08T00:55:41.800Z,-1.8
2017-07-08T00:56:41.002Z,-1.6
2017-07-08T00:57:39.565Z,-1.6
2017-07-08T00:58:39.575Z,-1.7
2017-07-08T00:59:38.636Z,-1.6
2017-07-08T01:00:38.078Z,-1.6
2017-07-08T01:01:37.640Z,-1.6
2017-07-08T01:02:37.086Z,-1.5
2017-07-08T01:03:36.157Z,-1.5
2017-07-08T01:04:35.228Z,-1.5
2017-07-08T01:05:35.059Z,-1.6
2017-07-08T01:06:34.383Z,-1.5
2017-07-08T01:07:33.949Z,-1.5
2017-07-08T01:08:33.058Z,-1.5
2017-07-08T01:09:32.496Z,-1.5
2017-07-08T01:10:32.501Z,-1.5
2017-07-08T01:11:31.323Z,-1.5
2017-07-08T01:13:29.907Z,-1.5
2017-07-08T01:14:29.098Z,-1.6
2017-07-08T01:15:29.044Z,-1.5
2017-07-08T01:16:27.975Z,-1.5
2017-07-08T01:17:27.295Z,-1.6
2017-07-08T01:18:26.745Z,-1.6
2017-07-08T01:19:27.011Z,-1.7
2017-07-08T01:20:25.823Z,-1.5
2017-07-08T01:21:24.435Z,-1.4
2017-07-08T01:22:24.118Z,-1.5
2017-07-08T01:23:23.313Z,-1.5
2017-07-08T01:24:23.151Z,-1.5
2017-07-08T01:25:22.861Z,-1.5
2017-07-08T01:26:22.258Z,-1.5
2017-07-08T01:27:20.826Z,-1.5
2017-07-08T01:27:51.324Z,-1.5
2017-07-08T01:28:22.204Z,-1.6
2017-07-08T01:28:52.580Z,-1.6
2017-07-08T01:30:19.329Z,-1.5
2017-07-08T01:31:18.775Z,-1.5
2017-07-08T01:32:17.963Z,-1.6
2017-07-08T01:33:17.847Z,-1.6
2017-07-08T01:34:16.809Z,-1.6
2017-07-08T01:35:16.003Z,-1.6
2017-07-08T01:36:15.443Z,-1.7
2017-07-08T01:37:14.635Z,-1.7
2017-07-08T01:38:14.091Z,-1.7
2017-07-08T01:39:13.287Z,-1.7
2017-07-08T01:40:13.099Z,-1.7
2017-07-08T01:41:12.677Z,-1.7
2017-07-08T01:42:11.371Z,-1.8
2017-07-08T01:43:10.695Z,-1.7
2017-07-08T01:44:10.258Z,-1.7
2017-07-08T01:45:09.700Z,-1.7
2017-07-08T01:46:09.155Z,-1.7
2017-07-08T01:47:08.603Z,-1.7
2017-07-08T01:48:08.170Z,-1.7
2017-07-08T01:49:06.984Z,-1.7
2017-07-08T01:50:06.935Z,-1.6
2017-07-08T01:51:05.495Z,-1.6
2017-07-08T01:52:05.191Z,-1.7
2017-07-08T01:53:04.631Z,-1.7
2017-07-08T01:54:03.563Z,-1.6
2017-07-08T01:55:03.383Z,-1.7
2017-07-08T01:56:02.452Z,-1.7
2017-07-08T01:57:02.276Z,-1.7
2017-07-08T01:58:01.463Z,-1.7
2017-07-08T01:59:00.774Z,-1.7
2017-07-08T02:00:00.224Z,-1.7
2017-07-08T02:00:59.554Z,-1.7
2017-07-08T02:01:59.129Z,-1.7
2017-07-08T02:02:58.209Z,-1.6
2017-07-08T02:03:57.532Z,-1.6
2017-07-08T02:04:56.992Z,-1.6
2017-07-08T02:05:56.695Z,-1.6
2017-07-08T02:06:55.637Z,-1.6
2017-07-08T02:07:54.704Z,-1.6
2017-07-08T02:08:25.075Z,-1.6
2017-07-08T02:08:55.626Z,-1.6
2017-07-08T02:09:26.136Z,-1.6
2017-07-08T02:09:57.334Z,-1.7
2017-07-08T02:10:27.088Z,-1.7
2017-07-08T02:11:52.582Z,-1.7
2017-07-08T02:12:51.650Z,-1.8
2017-07-08T02:13:51.473Z,-1.8
2017-07-08T02:14:50.535Z,-1.7
2017-07-08T02:15:49.724Z,-1.8
2017-07-08T02:16:49.168Z,-1.8
2017-07-08T02:17:48.233Z,-1.8
2017-07-08T02:18:48.050Z,-1.7
2017-07-08T02:19:47.485Z,-1.7
2017-07-08T02:20:17.973Z,-1.7
2017-07-08T02:20:48.726Z,-1.7
2017-07-08T02:21:19.228Z,-1.7
2017-07-08T02:21:49.473Z,-1.7
2017-07-08T02:22:19.844Z,-1.7
2017-07-08T02:24:45.174Z,-1.7
2017-07-08T02:25:43.490Z,-1.6
2017-07-08T02:26:42.695Z,-1.6
2017-07-08T02:27:42.142Z,-1.6
2017-07-08T02:28:41.465Z,-1.6
2017-07-08T02:29:40.653Z,-1.6
2017-07-08T02:30:40.100Z,-1.6
2017-07-08T02:31:39.159Z,-1.6
2017-07-08T02:32:39.110Z,-1.6
2017-07-08T02:33:38.432Z,-1.6
2017-07-08T02:34:37.628Z,-1.6
2017-07-08T02:35:36.586Z,-1.6
2017-07-08T02:36:36.410Z,-1.7
2017-07-08T02:37:35.737Z,-1.7
2017-07-08T02:38:35.306Z,-1.7
2017-07-08T02:39:34.373Z,-1.7
2017-07-08T02:40:33.694Z,-1.7
2017-07-08T02:41:33.024Z,-1.6
2017-07-08T02:42:32.357Z,-1.7
2017-07-08T02:43:32.190Z,-1.7
2017-07-08T02:44:31.250Z,-1.7
2017-07-08T02:45:30.447Z,-1.6
2017-07-08T02:46:30.018Z,-1.6
2017-07-08T02:47:29.474Z,-1.6
2017-07-08T02:48:28.816Z,-1.7
2017-07-08T02:49:28.013Z,-1.7
2017-07-08T02:50:27.210Z,-1.6
2017-07-08T02:51:26.527Z,-1.6
2017-07-08T02:52:25.841Z,-1.6
2017-07-08T02:53:25.154Z,-1.6
2017-07-08T02:54:24.856Z,-1.6
2017-07-08T02:55:23.968Z,-1.6
2017-07-08T02:56:23.031Z,-1.6
2017-07-08T02:57:22.605Z,-1.6
2017-07-08T02:59:21.819Z,-1.6
2017-07-08T03:00:21.260Z,-1.6
2017-07-08T03:01:20.332Z,-1.5
2017-07-08T03:02:19.656Z,-1.5
2017-07-08T03:02:49.526Z,-1.5
2017-07-08T03:03:20.300Z,-1.5
2017-07-08T03:04:18.240Z,-1.5
2017-07-08T03:05:17.550Z,-1.5
2017-07-08T03:06:16.743Z,-1.4
2017-07-08T03:07:16.076Z,-1.5
2017-07-08T03:08:15.907Z,-1.5
2017-07-08T03:09:15.481Z,-1.6
2017-07-08T03:10:14.441Z,-1.6
2017-07-08T03:11:13.768Z,-1.5
2017-07-08T03:12:13.094Z,-1.6
2017-07-08T03:13:12.270Z,-1.7
2017-07-08T03:14:11.854Z,-1.6
2017-07-08T03:16:11.394Z,-1.7
2017-07-08T03:17:09.822Z,-1.6
2017-07-08T03:18:09.395Z,-1.6
2017-07-08T03:19:08.989Z,-1.6
2017-07-08T03:20:07.807Z,-1.6
2017-07-08T03:21:07.008Z,-1.6
2017-07-08T03:22:06.316Z,-1.6
2017-07-08T03:23:06.015Z,-1.6
2017-07-08T03:24:05.457Z,-1.6
2017-07-08T03:25:04.779Z,-1.8
2017-07-08T03:26:03.849Z,-1.8
2017-07-08T03:27:03.665Z,-1.7
2017-07-08T03:28:02.738Z,-1.7
2017-07-08T03:29:02.071Z,-1.7
2017-07-08T03:30:01.272Z,-1.6
2017-07-08T03:31:00.716Z,-1.7
2017-07-08T03:32:00.170Z,-1.7
2017-07-08T03:32:59.698Z,-1.7
2017-07-08T03:33:59.207Z,-1.7
2017-07-08T03:34:58.013Z,-1.7
2017-07-08T03:35:57.334Z,-1.7
2017-07-08T03:36:57.410Z,-1.7
2017-07-08T03:37:56.597Z,-1.5
2017-07-08T03:38:55.732Z,-1.5
2017-07-08T03:39:55.047Z,-1.6
2017-07-08T03:40:54.240Z,-1.7
2017-07-08T03:41:53.547Z,-1.7
2017-07-08T03:42:52.873Z,-1.7
2017-07-08T03:43:52.452Z,-1.7
2017-07-08T03:44:52.021Z,-1.7
2017-07-08T03:45:50.839Z,-1.7
2017-07-08T03:46:50.287Z,-1.7
2017-07-08T03:47:49.604Z,-1.7
2017-07-08T03:48:48.923Z,-1.7
2017-07-08T03:49:48.506Z,-1.7
2017-07-08T03:50:48.211Z,-1.7
2017-07-08T03:51:46.776Z,-1.8
2017-07-08T03:52:46.343Z,-1.8
2017-07-08T03:53:45.412Z,-1.8
2017-07-08T03:54:45.239Z,-1.8
2017-07-08T03:55:44.307Z,-1.8
2017-07-08T03:56:43.890Z,-1.8
2017-07-08T03:57:43.209Z,-1.8
2017-07-08T03:58:42.900Z,-1.8
2017-07-08T03:59:41.714Z,-1.8
2017-07-08T04:00:41.033Z,-1.7
2017-07-08T04:01:40.234Z,-1.7
2017-07-08T04:02:39.934Z,-1.8
2017-07-08T04:03:39.253Z,-1.7
2017-07-08T04:04:38.955Z,-1.7
2017-07-08T04:05:37.777Z,-1.7
2017-07-08T04:06:36.976Z,-1.7
2017-07-08T04:07:36.557Z,-1.7
2017-07-08T04:08:35.993Z,-1.8
2017-07-08T04:09:35.448Z,-1.8
2017-07-08T04:10:34.891Z,-1.9
2017-07-08T04:11:33.959Z,-1.8
2017-07-08T04:12:33.145Z,-1.9
2017-07-08T04:13:32.841Z,-1.9
2017-07-08T04:14:32.287Z,-1.9
2017-07-08T04:15:31.358Z,-2
2017-07-08T04:16:30.929Z,-2.1
2017-07-08T04:17:29.745Z,-2
2017-07-08T04:18:29.827Z,-2.1
2017-07-08T04:19:28.657Z,-2.2
2017-07-08T04:20:28.050Z,-2.2
2017-07-08T04:21:27.377Z,-2.3
2017-07-08T04:22:26.741Z,-2.3
2017-07-08T04:23:25.808Z,-2.3
2017-07-08T04:24:25.630Z,-2.3
2017-07-08T04:25:24.842Z,-2.2
2017-07-08T04:27:23.648Z,-2.2
2017-07-08T04:28:23.098Z,-2.3
2017-07-08T04:29:22.034Z,-2.4
2017-07-08T04:29:53.232Z,-2.4
2017-07-08T04:31:20.625Z,-2.4
2017-07-08T04:32:19.945Z,-2.3
2017-07-08T04:33:19.520Z,-2.4
2017-07-08T04:34:19.669Z,-2.3
2017-07-08T04:35:18.478Z,-2.3
2017-07-08T04:36:18.053Z,-2.3
2017-07-08T04:37:17.003Z,-2.3
2017-07-08T04:38:16.319Z,-2.2
2017-07-08T04:39:15.894Z,-2.2
2017-07-08T04:40:15.329Z,-2.2
2017-07-08T04:41:14.409Z,-2.3
2017-07-08T04:43:13.255Z,-2.2
2017-07-08T04:44:13.257Z,-2.2
2017-07-08T04:45:11.833Z,-2.2
2017-07-08T04:46:11.157Z,-2.2
2017-07-08T04:47:10.599Z,-2.3
2017-07-08T04:48:09.911Z,-2.4
2017-07-08T04:49:09.114Z,-2.4
2017-07-08T04:50:08.691Z,-2.4
2017-07-08T04:51:08.384Z,-2.5
2017-07-08T04:52:07.325Z,-2.5
2017-07-08T04:53:06.641Z,-2.6
2017-07-08T04:54:05.971Z,-2.6
2017-07-08T04:55:05.290Z,-2.5
2017-07-08T04:56:04.619Z,-2.5
2017-07-08T04:58:03.208Z,-2.4
2017-07-08T04:59:02.285Z,-2.4
2017-07-08T05:00:02.243Z,-2.4
2017-07-08T05:01:01.306Z,-2.5
2017-07-08T05:02:00.632Z,-2.5
2017-07-08T05:02:59.819Z,-2.6
2017-07-08T05:03:59.387Z,-2.6
2017-07-08T05:04:58.444Z,-2.7
2017-07-08T05:05:58.267Z,-2.7
2017-07-08T05:06:57.331Z,-2.6
2017-07-08T05:07:57.141Z,-2.6
2017-07-08T05:08:55.830Z,-2.7
2017-07-08T05:09:55.655Z,-2.6
2017-07-08T05:10:55.238Z,-2.6
2017-07-08T05:11:54.687Z,-2.6
2017-07-08T05:12:53.758Z,-2.5
2017-07-08T05:13:52.828Z,-2.4
2017-07-08T05:14:52.793Z,-2.4
2017-07-08T05:15:51.482Z,-2.5
2017-07-08T05:16:51.047Z,-2.5
2017-07-08T05:17:50.369Z,-2.4
2017-07-08T05:18:49.683Z,-2.3
2017-07-08T05:19:20.181Z,-2.3
2017-07-08T05:19:50.795Z,-2.3
2017-07-08T05:20:48.473Z,-2.3
2017-07-08T05:21:47.931Z,-2.2
2017-07-08T05:22:47.118Z,-2.2
2017-07-08T05:23:46.185Z,-2.2
2017-07-08T05:24:46.254Z,-2.2
2017-07-08T05:25:45.202Z,-2.2
2017-07-08T05:26:44.636Z,-2.2
2017-07-08T05:27:43.955Z,-2.2
2017-07-08T05:28:43.389Z,-2.4
2017-07-08T05:29:42.703Z,-2.6
2017-07-08T05:30:42.028Z,-2.7
2017-07-08T05:31:41.340Z,-2.6
2017-07-08T05:32:40.534Z,-2.6
2017-07-08T05:33:40.227Z,-2.7
2017-07-08T05:34:39.987Z,-2.9
2017-07-08T05:35:38.665Z,-2.9
2017-07-08T05:36:37.988Z,-3
2017-07-08T05:37:37.957Z,-2.9
2017-07-08T05:38:37.286Z,-2.8
2017-07-08T05:39:36.358Z,-2.7
2017-07-08T05:40:06.481Z,-2.7
2017-07-08T05:40:37.329Z,-2.8
2017-07-08T05:41:35.007Z,-2.7
2017-07-08T05:42:34.478Z,-2.7
2017-07-08T05:43:33.666Z,-2.8
2017-07-08T05:44:33.244Z,-2.7
2017-07-08T05:45:32.871Z,-2.7
2017-07-08T05:46:31.689Z,-2.7
2017-07-08T05:47:31.260Z,-2.9
2017-07-08T05:48:30.458Z,-2.8
2017-07-08T05:49:30.037Z,-3
2017-07-08T05:50:29.231Z,-3
2017-07-08T05:51:00.004Z,-3
2017-07-08T05:51:30.620Z,-3
2017-07-08T05:52:00.996Z,-3
2017-07-08T05:53:27.371Z,-3
2017-07-08T05:54:27.195Z,-3
2017-07-08T05:55:25.890Z,-3
2017-07-08T05:56:25.718Z,-3.1
2017-07-08T05:57:25.024Z,-3
2017-07-08T05:58:24.216Z,-3
2017-07-08T05:59:23.526Z,-3
2017-07-08T06:00:23.371Z,-3
2017-07-08T06:01:22.836Z,-3.2
2017-07-08T06:02:21.524Z,-3.2
2017-07-08T06:03:21.614Z,-3.2
2017-07-08T06:05:19.964Z,-3.2
2017-07-08T06:06:19.158Z,-3.2
2017-07-08T06:07:18.602Z,-3.2
2017-07-08T06:08:17.925Z,-3.2
2017-07-08T06:09:17.775Z,-3.1
2017-07-08T06:10:17.358Z,-3.1
2017-07-08T06:11:16.306Z,-3.2
2017-07-08T06:12:15.502Z,-3.1
2017-07-08T06:13:15.464Z,-3.1
2017-07-08T06:14:14.274Z,-3.3
2017-07-08T06:15:14.097Z,-3.2
2017-07-08T06:17:13.069Z,-3.2
2017-07-08T06:18:11.623Z,-3.1
2017-07-08T06:19:11.460Z,-3.3
2017-07-08T06:20:10.669Z,-3.4
2017-07-08T06:22:09.114Z,-3.3
2017-07-08T06:23:08.556Z,-3.5
2017-07-08T06:24:08.515Z,-3.7
2017-07-08T06:25:07.955Z,-3.7
2017-07-08T06:26:06.901Z,-3.7
2017-07-08T06:27:06.727Z,-3.6
2017-07-08T06:28:05.919Z,-3.7
2017-07-08T06:29:05.358Z,-3.7
2017-07-08T06:30:04.675Z,-3.6
2017-07-08T06:31:03.981Z,-3.6
2017-07-08T06:32:02.923Z,-3.5
2017-07-08T06:33:02.374Z,-3.5
2017-07-08T06:34:01.823Z,-3.5
2017-07-08T06:35:01.775Z,-3.5
2017-07-08T06:37:00.234Z,-3.5
2017-07-08T06:37:59.681Z,-3.5
2017-07-08T06:38:59.131Z,-3.4
2017-07-08T06:39:58.713Z,-3.4
2017-07-08T06:40:57.911Z,-3.2
2017-07-08T06:41:57.736Z,-3
2017-07-08T06:42:56.677Z,-3
2017-07-08T06:43:55.995Z,-3
2017-07-08T06:44:55.944Z,-3.1
2017-07-08T06:45:55.513Z,-3.2
2017-07-08T06:46:54.194Z,-3.1
2017-07-08T06:47:53.885Z,-3
2017-07-08T06:48:53.340Z,-3
2017-07-08T06:49:52.272Z,-3.1
2017-07-08T06:51:51.359Z,-3.2
2017-07-08T06:52:50.809Z,-3.2
2017-07-08T06:53:49.884Z,-3.4
2017-07-08T06:54:49.706Z,-3.4
2017-07-08T06:55:48.895Z,-3.4
2017-07-08T06:56:48.540Z,-3.3
2017-07-08T06:57:48.130Z,-3.2
2017-07-08T06:58:47.219Z,-3.1
2017-07-08T06:59:46.804Z,-3.1
2017-07-08T07:00:46.138Z,-3.1
2017-07-08T07:01:45.199Z,-3
2017-07-08T07:02:44.763Z,-2.8
2017-07-08T07:03:45.279Z,-2.7
2017-07-08T07:04:43.337Z,-2.6
2017-07-08T07:05:43.035Z,-2.6
2017-07-08T07:06:42.977Z,-2.7
2017-07-08T07:07:42.050Z,-2.5
2017-07-08T07:08:41.490Z,-2.6
2017-07-08T07:09:40.556Z,-2.6
2017-07-08T07:10:40.946Z,-2.7
2017-07-08T07:11:40.215Z,-2.6
2017-07-08T07:12:39.156Z,-2.7
2017-07-08T07:13:38.475Z,-2.7
2017-07-08T07:14:38.043Z,-2.7
2017-07-08T07:15:37.483Z,-2.7
2017-07-08T07:16:37.066Z,-2.7
2017-07-08T07:17:35.782Z,-2.7
2017-07-08T07:18:35.623Z,-2.8
2017-07-08T07:19:34.824Z,-2.5
2017-07-08T07:20:34.150Z,-2.5
2017-07-08T07:21:33.470Z,-2.6
2017-07-08T07:22:33.161Z,-2.8
2017-07-08T07:23:32.472Z,-2.7
2017-07-08T07:24:31.936Z,-2.6
2017-07-08T07:25:31.008Z,-2.9
2017-07-08T07:26:30.582Z,-2.8
2017-07-08T07:27:30.597Z,-2.8
2017-07-08T07:28:29.697Z,-3.1
2017-07-08T07:29:29.579Z,-3.1
2017-07-08T07:30:28.529Z,-3
2017-07-08T07:31:27.735Z,-2.8
2017-07-08T07:32:26.937Z,-2.7
2017-07-08T07:33:26.371Z,-2.7
2017-07-08T07:34:26.231Z,-2.8
2017-07-08T07:35:25.423Z,-2.8
2017-07-08T07:36:25.002Z,-3
2017-07-08T07:37:24.062Z,-3
2017-07-08T07:38:23.759Z,-2.9
2017-07-08T07:38:54.131Z,-2.9
2017-07-08T07:39:24.773Z,-3
2017-07-08T07:39:55.397Z,-3
2017-07-08T07:40:26.038Z,-3
2017-07-08T07:40:56.923Z,-3
2017-07-08T07:41:27.435Z,-2.8
2017-07-08T07:41:57.508Z,-2.8
2017-07-08T07:44:20.512Z,-3
2017-07-08T07:46:18.905Z,-2.9
2017-07-08T07:47:18.978Z,-3
2017-07-08T07:48:18.180Z,-2.8
2017-07-08T07:49:17.628Z,-2.8
2017-07-08T07:50:16.696Z,-2.8
2017-07-08T07:51:16.005Z,-2.6
2017-07-08T07:52:15.962Z,-2.6
2017-07-08T07:52:46.592Z,-2.6
2017-07-08T07:53:17.104Z,-2.6
2017-07-08T07:53:47.984Z,-2.6
2017-07-08T07:54:18.373Z,-2.6
2017-07-08T07:55:13.794Z,-2.3
2017-07-08T07:56:13.550Z,-2.3
2017-07-08T07:57:12.785Z,-2.2
2017-07-08T07:58:12.231Z,-2
2017-07-08T07:59:11.681Z,-2
2017-07-08T07:59:42.442Z,-2
2017-07-08T08:00:12.692Z,-2
2017-07-08T08:01:11.084Z,-2
2017-07-08T08:02:09.778Z,-1.9
2017-07-08T08:03:08.977Z,-1.7
2017-07-08T08:04:08.547Z,-1.7
2017-07-08T08:05:08.430Z,-1.6
2017-07-08T08:06:07.187Z,-1.7
2017-07-08T08:07:06.881Z,-1.9
2017-07-08T08:08:06.316Z,-2.1
2017-07-08T08:09:05.817Z,-2.2
2017-07-08T08:10:05.596Z,-2.2
2017-07-08T08:10:35.721Z,-2.2
2017-07-08T08:11:06.058Z,-2.3
2017-07-08T08:11:35.803Z,-2.3
2017-07-08T08:12:06.692Z,-2.6
2017-07-08T08:12:36.698Z,-2.6
2017-07-08T08:14:03.318Z,-2.6
2017-07-08T08:16:01.768Z,-2.7
2017-07-08T08:17:01.079Z,-2.5
2017-07-08T08:18:00.709Z,-2.7
2017-07-08T08:19:00.028Z,-2.7
2017-07-08T08:19:59.605Z,-2.8
2017-07-08T08:20:58.663Z,-2.8
2017-07-08T08:21:58.348Z,-2.8
2017-07-08T08:22:57.403Z,-2.6
2017-07-08T08:23:56.967Z,-2.6
2017-07-08T08:24:56.919Z,-2.7
2017-07-08T08:25:56.240Z,-2.6
2017-07-08T08:26:55.438Z,-2.5
2017-07-08T08:27:55.390Z,-2.2
2017-07-08T08:28:54.219Z,-2.3
2017-07-08T08:29:54.617Z,-2.3
2017-07-08T08:30:53.511Z,-2.1
2017-07-08T08:31:52.699Z,-2.1
2017-07-08T08:32:52.026Z,-2.1
2017-07-08T08:33:51.866Z,-2.2
2017-07-08T08:34:51.181Z,-2.2
2017-07-08T08:35:50.364Z,-2.4
2017-07-08T08:36:49.939Z,-2.5
2017-07-08T08:37:49.396Z,-2.7
2017-07-08T08:38:48.216Z,-3
2017-07-08T08:39:48.171Z,-2.8
2017-07-08T08:40:47.624Z,-2.5
2017-07-08T08:41:47.216Z,-2.2
2017-07-08T08:42:46.785Z,-2.1
2017-07-08T08:43:46.120Z,-2.1
2017-07-08T08:44:45.831Z,-2.2
2017-07-08T08:45:44.383Z,-2.2
2017-07-08T08:46:44.331Z,-2.2
2017-07-08T08:47:43.785Z,-2.3
2017-07-08T08:48:42.965Z,-2.3
2017-07-08T08:49:42.397Z,-2.1
2017-07-08T08:50:41.959Z,-2.2
2017-07-08T08:51:41.408Z,-2.2
2017-07-08T08:52:40.726Z,-2.2
2017-07-08T08:53:40.303Z,-2.1
2017-07-08T08:54:39.745Z,-2.1
2017-07-08T08:55:38.940Z,-1.8
2017-07-08T08:56:38.645Z,-1.8
2017-07-08T08:57:38.155Z,-1.7
2017-07-08T08:58:37.341Z,-1.7
2017-07-08T08:59:36.918Z,-1.9
2017-07-08T09:00:36.115Z,-1.8
2017-07-08T09:01:36.067Z,-1.8
2017-07-08T09:02:35.396Z,-1.9
2017-07-08T09:04:34.112Z,-1.9
2017-07-08T09:05:33.935Z,-2
2017-07-08T09:06:33.144Z,-2.1
2017-07-08T09:07:32.208Z,-2.3
2017-07-08T09:08:32.166Z,-2.4
2017-07-08T09:09:02.168Z,-2.4
2017-07-08T09:09:32.554Z,-2.5
2017-07-08T09:10:31.001Z,-2.6
2017-07-08T09:11:30.446Z,-2.5
2017-07-08T09:12:29.631Z,-2.6
2017-07-08T09:13:28.958Z,-2.5
2017-07-08T09:14:28.778Z,-2.2
2017-07-08T09:15:28.116Z,-2.1
2017-07-08T09:16:27.572Z,-1.8
2017-07-08T09:17:26.771Z,-1.7
2017-07-08T09:18:26.840Z,-1.5
2017-07-08T09:19:25.666Z,-1.4
2017-07-08T09:20:25.369Z,-1.5
2017-07-08T09:21:24.552Z,-1.4
2017-07-08T09:22:24.117Z,-1.5
2017-07-08T09:23:23.437Z,-1.6
2017-07-08T09:24:23.510Z,-1.7
2017-07-08T09:25:22.446Z,-1.8
2017-07-08T09:26:21.901Z,-1.9
2017-07-08T09:27:21.351Z,-1.9
2017-07-08T09:28:21.170Z,-2
2017-07-08T09:29:20.499Z,-2
2017-07-08T09:30:19.818Z,-2.2
2017-07-08T09:31:19.140Z,-2.2
2017-07-08T09:32:18.475Z,-2.3
2017-07-08T09:34:17.612Z,-2.2
2017-07-08T09:35:17.070Z,-1.9
2017-07-08T09:36:16.255Z,-1.9
2017-07-08T09:37:15.944Z,-1.9
2017-07-08T09:38:14.886Z,-1.7
2017-07-08T09:39:14.583Z,-1.6
2017-07-08T09:40:14.401Z,-1.5
2017-07-08T09:41:13.775Z,-1.5
2017-07-08T09:42:13.080Z,-1.6
2017-07-08T09:43:12.527Z,-1.7
2017-07-08T09:44:12.474Z,-2
2017-07-08T09:45:11.788Z,-2
2017-07-08T09:46:11.375Z,-2
2017-07-08T09:47:10.306Z,-2
2017-07-08T09:48:10.176Z,-2.2
2017-07-08T09:49:09.368Z,-2.1
2017-07-08T09:50:08.691Z,-2.3
2017-07-08T09:51:08.007Z,-2.4
2017-07-08T09:52:07.841Z,-2.3
2017-07-08T09:53:07.283Z,-2.3
2017-07-08T09:54:06.478Z,-2.2
2017-07-08T09:55:06.042Z,-2.2
2017-07-08T09:56:05.101Z,-2
2017-07-08T09:57:05.188Z,-1.9
2017-07-08T09:58:04.250Z,-1.9
2017-07-08T09:59:04.026Z,-2.1
2017-07-08T10:00:03.083Z,-2.1
2017-07-08T10:01:02.888Z,-2.2
2017-07-08T10:01:33.378Z,-2.2
2017-07-08T10:02:04.188Z,-2.3
2017-07-08T10:02:34.815Z,-2.3
2017-07-08T10:03:05.189Z,-2.1
2017-07-08T10:03:36.068Z,-2.1
2017-07-08T10:05:00.565Z,-2.3
2017-07-08T10:06:00.262Z,-2.1
2017-07-08T10:06:59.573Z,-1.9
2017-07-08T10:07:59.545Z,-2
2017-07-08T10:08:58.368Z,-2.1
2017-07-08T10:09:57.937Z,-2.2
2017-07-08T10:10:57.526Z,-2.4
2017-07-08T10:11:56.987Z,-2.4
2017-07-08T10:12:56.427Z,-2.4
2017-07-08T10:13:56.068Z,-2.4
2017-07-08T10:14:26.196Z,-2.4
2017-07-08T10:14:56.597Z,-2.4
2017-07-08T10:15:55.055Z,-2.5
2017-07-08T10:16:54.505Z,-2.5
2017-07-08T10:18:53.281Z,-2.2
2017-07-08T10:19:52.883Z,-2.2
2017-07-08T10:21:52.308Z,-2.2
2017-07-08T10:22:51.131Z,-2.3
2017-07-08T10:23:50.200Z,-2
2017-07-08T10:24:49.885Z,-2
2017-07-08T10:25:48.935Z,-1.4
2017-07-08T10:26:48.759Z,-0.6
2017-07-08T10:27:48.088Z,-0.2
2017-07-08T10:28:47.917Z,-0.4
2017-07-08T10:29:47.116Z,-0.5
2017-07-08T10:30:46.320Z,-0.6
2017-07-08T10:31:46.150Z,0.2
2017-07-08T10:32:45.345Z,0
2017-07-08T10:33:44.801Z,0
2017-07-08T10:35:43.517Z,-0.2
2017-07-08T10:36:43.341Z,-0.1
2017-07-08T10:37:42.537Z,-0.1
2017-07-08T10:38:41.726Z,0.2
2017-07-08T10:39:41.421Z,0.2
2017-07-08T10:40:40.854Z,0.1
2017-07-08T10:41:40.279Z,0.2
2017-07-08T10:42:39.855Z,0.3
2017-07-08T10:43:39.426Z,0.3
2017-07-08T10:44:38.740Z,0.1
2017-07-08T10:45:37.938Z,-0.1
2017-07-08T10:47:36.523Z,-0.2
2017-07-08T10:48:36.476Z,-0.1
2017-07-08T10:49:35.803Z,-0.3
2017-07-08T10:50:35.512Z,-0.5
2017-07-08T10:51:34.197Z,-0.5
2017-07-08T10:52:33.897Z,-0.2
2017-07-08T10:53:33.356Z,-0.2
2017-07-08T10:54:32.539Z,-0.3
2017-07-08T10:55:32.377Z,-0.1
2017-07-08T10:56:31.814Z,-0.2
2017-07-08T10:57:31.145Z,-0.1
2017-07-08T10:58:30.712Z,-0.1
2017-07-08T10:59:29.782Z,-0.1
2017-07-08T11:00:29.364Z,-0.1
2017-07-08T11:01:28.941Z,-0.1
2017-07-08T11:02:28.389Z,0
2017-07-08T11:03:27.334Z,-0.1
2017-07-08T11:04:26.523Z,-0.3
2017-07-08T11:05:26.327Z,-0.4
2017-07-08T11:06:25.644Z,-0.3
2017-07-08T11:07:24.838Z,-0.1
2017-07-08T11:08:24.661Z,0
2017-07-08T11:09:23.722Z,0.2
2017-07-08T11:10:23.534Z,0
2017-07-08T11:11:22.716Z,0
2017-07-08T11:12:22.161Z,-0.1
2017-07-08T11:13:21.236Z,-0.1
2017-07-08T11:13:52.130Z,-0.1
2017-07-08T11:14:22.950Z,-0.1
2017-07-08T11:15:20.257Z,-0.1
2017-07-08T11:16:19.832Z,0
2017-07-08T11:17:19.162Z,-0.2
2017-07-08T11:18:18.857Z,-0.1
2017-07-08T11:19:17.924Z,-0.1
2017-07-08T11:20:17.740Z,-0.2
2017-07-08T11:21:17.772Z,0
2017-07-08T11:22:16.342Z,-0.1
2017-07-08T11:23:15.524Z,0
2017-07-08T11:24:15.347Z,0.1
2017-07-08T11:24:45.466Z,0.1
2017-07-08T11:26:13.852Z,0.5
2017-07-08T11:27:13.547Z,0.4
2017-07-08T11:28:12.730Z,0.5
2017-07-08T11:29:12.316Z,0.4
2017-07-08T11:30:11.774Z,0.4
2017-07-08T11:31:11.096Z,0.6
2017-07-08T11:32:10.822Z,0.6
2017-07-08T11:33:10.002Z,0.5
2017-07-08T11:34:09.945Z,0.5
2017-07-08T11:35:08.760Z,0.4
2017-07-08T11:36:08.461Z,0.8
2017-07-08T11:37:07.780Z,0.7
2017-07-08T11:38:07.474Z,0.7
2017-07-08T11:39:06.531Z,0.8
2017-07-08T11:40:06.343Z,0.8
2017-07-08T11:41:05.804Z,1.2
2017-07-08T11:42:05.126Z,1.2
2017-07-08T11:43:04.305Z,1.3
2017-07-08T11:44:03.995Z,1.3
2017-07-08T11:45:03.127Z,1.4
2017-07-08T11:46:02.697Z,1.2
2017-07-08T11:47:02.397Z,1.3
2017-07-08T11:48:01.598Z,1.6
2017-07-08T11:49:01.051Z,1.7
2017-07-08T11:50:01.330Z,1.8
2017-07-08T11:51:00.145Z,1.8
2017-07-08T11:51:59.223Z,1.7
2017-07-08T11:52:58.936Z,1.4
2017-07-08T11:53:58.245Z,1.5
2017-07-08T11:54:58.076Z,1.4
2017-07-08T11:55:57.406Z,1.7
2017-07-08T11:56:56.739Z,1.7
2017-07-08T11:57:56.574Z,1.9
2017-07-08T11:58:55.793Z,2
2017-07-08T11:59:55.421Z,1.9
2017-07-08T12:00:54.619Z,1.9
2017-07-08T12:01:53.934Z,1.8
2017-07-08T12:02:53.627Z,1.6
2017-07-08T12:03:52.943Z,1.8
2017-07-08T12:04:52.273Z,1.8
2017-07-08T12:05:51.961Z,1.7
2017-07-08T12:06:51.156Z,1.8
2017-07-08T12:07:51.101Z,1.6
2017-07-08T12:09:49.820Z,1.5
2017-07-08T12:10:49.284Z,1.3
2017-07-08T12:11:48.474Z,1.4
2017-07-08T12:12:48.172Z,1.3
2017-07-08T12:13:47.752Z,1.4
2017-07-08T12:14:47.196Z,1.3
2017-07-08T12:16:46.037Z,1.4
2017-07-08T12:17:45.507Z,1.6
2017-07-08T12:18:44.821Z,1.4
2017-07-08T12:19:44.529Z,1.4
2017-07-08T12:20:43.853Z,1.4
2017-07-08T12:21:43.047Z,1.1
2017-07-08T12:22:42.751Z,0.9
2017-07-08T12:23:42.073Z,0.9
2017-07-08T12:24:41.388Z,0.9
2017-07-08T12:25:41.222Z,0.8
2017-07-08T12:26:40.790Z,0.7
2017-07-08T12:27:40.098Z,0.5
2017-07-08T12:28:39.555Z,0.5
2017-07-08T12:29:39.249Z,0.4
2017-07-08T12:30:38.953Z,0.4
2017-07-08T12:31:37.769Z,0.3
2017-07-08T12:32:37.085Z,0.3
2017-07-08T12:33:37.023Z,0.6
2017-07-08T12:34:36.601Z,0.6
2017-07-08T12:35:36.188Z,0.5
2017-07-08T12:36:35.377Z,0.4
2017-07-08T12:37:34.701Z,0.4
2017-07-08T12:38:33.887Z,0.5
2017-07-08T12:39:33.710Z,0.7
2017-07-08T12:40:33.182Z,0.9
2017-07-08T12:41:32.558Z,1
2017-07-08T12:42:03.318Z,1
2017-07-08T12:43:31.833Z,1.3
2017-07-08T12:45:30.670Z,1.4
2017-07-08T12:46:29.987Z,1.4
2017-07-08T12:47:29.618Z,1.3
2017-07-08T12:48:29.320Z,1.2
2017-07-08T12:49:28.957Z,0.9
2017-07-08T12:50:27.921Z,0.5
2017-07-08T12:51:27.875Z,0.3
2017-07-08T12:52:26.824Z,0.3
2017-07-08T12:53:26.391Z,0.3
2017-07-08T12:53:56.901Z,0.3
2017-07-08T12:54:27.666Z,0.4
2017-07-08T12:55:25.214Z,0.3
2017-07-08T12:57:24.416Z,0.3
2017-07-08T12:58:24.239Z,0.2
2017-07-08T12:59:23.192Z,0.6
2017-07-08T13:00:22.890Z,0.6
2017-07-08T13:01:23.143Z,0.4
2017-07-08T13:02:21.707Z,0.3
2017-07-08T13:03:21.287Z,0.2
2017-07-08T13:04:20.855Z,0.4
2017-07-08T13:05:20.678Z,0.4
2017-07-08T13:06:19.875Z,0.3
2017-07-08T13:07:19.061Z,0.2
2017-07-08T13:08:19.018Z,0.1
2017-07-08T13:09:18.220Z,0.2
2017-07-08T13:10:18.045Z,0.5
2017-07-08T13:11:17.500Z,0.5
2017-07-08T13:12:17.209Z,0.5
2017-07-08T13:13:16.655Z,0.4
2017-07-08T13:14:15.856Z,0.4
2017-07-08T13:15:14.923Z,0.6
2017-07-08T13:16:14.866Z,0.7